createdAt,value
2023-04-25T00:01:30.690Z,76.64
2023-04-25T00:03:59.419Z,76.61
2023-04-25T00:06:28.289Z,76.42
2023-04-25T00:08:57.579Z,75.79
2023-04-25T00:11:26.227Z,75.86
2023-04-25T00:13:55.381Z,76.06
2023-04-25T00:16:24.907Z,74.97
2023-04-25T00:18:54.876Z,75.30
2023-04-25T00:21:25.366Z,76.16
2023-04-25T00:23:54.817Z,75.65
2023-04-25T00:26:23.481Z,75.50
2023-04-25T00:28:52.077Z,75.80
2023-04-25T00:31:20.779Z,75.51
2023-04-25T00:33:50.018Z,75.71
2023-04-25T00:36:20.153Z,76.58
2023-04-25T00:38:48.730Z,75.50
2023-04-25T00:41:17.463Z,77.00
2023-04-25T00:43:46.594Z,77.00
2023-04-25T00:46:15.356Z,77.14
2023-04-25T00:48:44.002Z,77.37
2023-04-25T00:51:16.053Z,78.66
2023-04-25T00:53:46.513Z,78.59
2023-04-25T00:56:15.324Z,77.97
2023-04-25T00:58:44.317Z,76.89
2023-04-25T01:01:13.701Z,74.85
2023-04-25T01:03:42.786Z,74.04
2023-04-25T01:06:12.681Z,73.64
2023-04-25T01:08:41.393Z,74.70
2023-04-25T01:11:11.408Z,74.86
2023-04-25T01:13:40.072Z,74.95
2023-04-25T01:16:08.978Z,75.89
2023-04-25T01:18:38.399Z,75.39
2023-04-25T01:21:11.028Z,76.39
2023-04-25T01:23:40.963Z,76.87
2023-04-25T01:26:11.191Z,77.36
2023-04-25T01:28:41.978Z,78.74
2023-04-25T01:31:10.906Z,78.23
2023-04-25T01:33:39.673Z,78.38
2023-04-25T01:36:10.081Z,76.94
2023-04-25T01:38:38.723Z,77.35
2023-04-25T01:41:07.471Z,74.90
2023-04-25T01:43:36.477Z,76.06
2023-04-25T01:46:05.127Z,77.21
2023-04-25T01:48:33.886Z,77.04
2023-04-25T01:51:02.474Z,77.85
2023-04-25T01:53:32.483Z,79.90
2023-04-25T01:56:01.091Z,80.75
2023-04-25T01:58:29.645Z,79.97
2023-04-25T02:00:58.292Z,87.02
2023-04-25T02:03:28.027Z,84.78
2023-04-25T02:05:56.802Z,83.81
2023-04-25T02:08:26.954Z,85.35
2023-04-25T02:10:56.878Z,85.62
2023-04-25T02:13:25.450Z,84.03
2023-04-25T02:15:54.169Z,83.23
2023-04-25T02:18:22.849Z,85.45
2023-04-25T02:20:51.482Z,85.79
2023-04-25T02:23:20.705Z,84.25
2023-04-25T02:25:49.505Z,84.62
2023-04-25T02:28:19.439Z,83.07
2023-04-25T02:30:48.055Z,84.09
2023-04-25T02:33:17.909Z,80.14
2023-04-25T02:35:46.583Z,81.04
2023-04-25T02:38:15.561Z,79.56
2023-04-25T02:40:44.214Z,79.61
2023-04-25T02:43:12.784Z,81.52
2023-04-25T02:45:42.747Z,80.42
2023-04-25T02:48:11.390Z,81.10
2023-04-25T02:50:40.096Z,79.72
2023-04-25T02:53:08.771Z,81.15
2023-04-25T02:55:37.404Z,80.63
2023-04-25T02:58:06.763Z,79.63
2023-04-25T03:00:35.417Z,80.09
2023-04-25T03:03:05.450Z,80.15
2023-04-25T03:05:34.158Z,80.52
2023-04-25T03:08:02.738Z,80.00
2023-04-25T03:10:31.358Z,81.74
2023-04-25T03:12:59.918Z,81.92
2023-04-25T03:15:28.631Z,80.23
2023-04-25T03:17:57.316Z,78.93
2023-04-25T03:20:27.356Z,80.11
2023-04-25T03:22:56.040Z,80.90
2023-04-25T03:25:24.716Z,79.46
2023-04-25T03:27:53.290Z,79.05
2023-04-25T03:30:21.859Z,81.03
2023-04-25T03:32:50.699Z,81.42
2023-04-25T03:35:19.558Z,81.77
2023-04-25T03:37:49.523Z,80.61
2023-04-25T03:40:18.163Z,79.81
2023-04-25T03:42:46.816Z,78.76
2023-04-25T03:45:15.406Z,79.02
2023-04-25T03:47:44.036Z,80.59
2023-04-25T03:50:12.780Z,80.59
2023-04-25T03:52:41.344Z,81.15
2023-04-25T03:55:11.817Z,79.59
2023-04-25T03:57:40.445Z,79.63
2023-04-25T04:00:10.824Z,79.25
2023-04-25T04:02:40.968Z,80.50
2023-04-25T04:05:10.980Z,80.64
2023-04-25T04:07:41.192Z,81.54
2023-04-25T04:10:11.870Z,81.91
2023-04-25T04:12:40.880Z,81.31
2023-04-25T04:15:10.806Z,81.06
2023-04-25T04:17:39.616Z,80.08
2023-04-25T04:20:09.682Z,79.43
2023-04-25T04:22:38.356Z,79.28
2023-04-25T04:25:08.068Z,80.11
2023-04-25T04:27:38.015Z,79.96
2023-04-25T04:30:08.240Z,80.69
2023-04-25T04:32:37.439Z,81.86
2023-04-25T04:35:07.552Z,80.81
2023-04-25T04:37:36.217Z,80.57
2023-04-25T04:40:06.222Z,81.00
2023-04-25T04:42:34.896Z,81.25
2023-04-25T04:45:05.820Z,80.47
2023-04-25T04:47:34.953Z,80.50
2023-04-25T04:50:03.626Z,80.35
2023-04-25T04:52:32.398Z,80.99
2023-04-25T04:55:01.017Z,79.65
2023-04-25T04:57:30.706Z,79.60
2023-04-25T04:59:59.328Z,79.82
2023-04-25T05:02:29.512Z,80.14
2023-04-25T05:04:58.723Z,79.39
2023-04-25T05:07:27.372Z,78.64
2023-04-25T05:09:56.010Z,79.08
2023-04-25T05:12:24.697Z,79.10
2023-04-25T05:14:53.368Z,79.28
2023-04-25T05:17:22.093Z,78.83
2023-04-25T05:19:52.166Z,79.04
2023-04-25T05:22:20.820Z,78.74
2023-04-25T05:24:49.832Z,79.16
2023-04-25T05:27:18.787Z,78.96
2023-04-25T05:29:47.468Z,79.58
2023-04-25T05:32:16.345Z,78.56
2023-04-25T05:34:45.335Z,79.02
2023-04-25T05:37:15.403Z,78.75
2023-04-25T05:39:43.998Z,77.46
2023-04-25T05:42:12.623Z,78.05
2023-04-25T05:44:41.490Z,78.20
2023-04-25T05:47:10.170Z,79.03
2023-04-25T05:49:38.750Z,78.14
2023-04-25T05:52:07.427Z,78.46
2023-04-25T05:54:37.396Z,76.87
2023-04-25T05:57:06.059Z,77.16
2023-04-25T05:59:34.658Z,76.57
2023-04-25T06:02:03.337Z,77.43
2023-04-25T06:04:32.176Z,76.80
2023-04-25T06:07:00.879Z,75.74
2023-04-25T06:09:29.481Z,75.92
2023-04-25T06:11:59.449Z,75.90
2023-04-25T06:14:29.644Z,75.38
2023-04-25T06:16:58.530Z,74.63
2023-04-25T06:19:27.142Z,70.11
2023-04-25T06:21:55.853Z,69.53
2023-04-25T06:24:24.550Z,69.70
2023-04-25T06:26:53.668Z,69.56
2023-04-25T06:29:24.474Z,70.22
2023-04-25T06:31:53.445Z,71.19
2023-04-25T06:34:22.127Z,70.52
2023-04-25T06:36:50.754Z,71.37
2023-04-25T06:39:21.056Z,71.38
2023-04-25T06:41:49.724Z,71.12
2023-04-25T06:44:18.375Z,71.60
2023-04-25T06:46:48.341Z,72.05
2023-04-25T06:49:16.956Z,71.54
2023-04-25T06:51:45.582Z,71.06
2023-04-25T06:54:14.287Z,71.20
2023-04-25T06:56:43.113Z,71.46
2023-04-25T06:59:11.722Z,71.31
2023-04-25T07:01:41.218Z,70.18
2023-04-25T07:04:11.419Z,70.36
2023-04-25T07:06:43.603Z,69.38
2023-04-25T07:09:12.387Z,69.22
2023-04-25T07:11:41.089Z,70.32
2023-04-25T07:14:09.726Z,69.95
2023-04-25T07:16:38.591Z,70.58
2023-04-25T07:19:07.308Z,70.72
2023-04-25T07:21:37.617Z,72.42
2023-04-25T07:24:07.172Z,72.47
2023-04-25T07:26:35.797Z,73.32
2023-04-25T07:29:04.455Z,76.23
2023-04-25T07:31:33.236Z,77.34
2023-04-25T07:34:02.276Z,80.32
2023-04-25T07:36:31.926Z,79.09
2023-04-25T07:39:01.953Z,79.83
2023-04-25T07:41:30.831Z,82.27
2023-04-25T07:43:59.414Z,84.69
2023-04-25T07:46:28.165Z,84.73
2023-04-25T07:48:56.915Z,85.71
2023-04-25T07:51:25.549Z,86.38
2023-04-25T07:53:54.168Z,86.49
2023-04-25T07:56:24.103Z,86.47
2023-04-25T07:58:53.061Z,87.31
2023-04-25T08:01:22.680Z,88.74
2023-04-25T08:03:51.541Z,88.17
2023-04-25T08:06:20.456Z,88.46
2023-04-25T08:08:49.551Z,88.35
2023-04-25T08:11:18.450Z,89.91
2023-04-25T08:13:48.443Z,89.91
2023-04-25T08:16:17.127Z,88.87
2023-04-25T08:18:45.815Z,90.45
2023-04-25T08:21:14.923Z,90.90
2023-04-25T08:23:43.608Z,91.43
2023-04-25T08:26:12.277Z,90.97
2023-04-25T08:28:40.869Z,90.78
2023-04-25T08:31:11.469Z,92.08
2023-04-25T08:33:40.172Z,92.79
2023-04-25T08:36:09.134Z,93.98
2023-04-25T08:38:38.273Z,94.46
2023-04-25T08:41:07.512Z,93.53
2023-04-25T08:43:39.130Z,94.40
2023-04-25T08:46:08.000Z,94.87
2023-04-25T08:48:38.233Z,94.13
2023-04-25T08:53:38.942Z,93.88
2023-04-25T08:56:10.243Z,94.49
2023-04-25T08:58:39.193Z,95.33
2023-04-25T09:01:08.300Z,94.46
2023-04-25T09:03:38.815Z,93.94
2023-04-25T09:06:07.658Z,95.72
2023-04-25T09:08:38.583Z,95.42
2023-04-25T09:11:07.256Z,97.11
2023-04-25T09:13:36.314Z,96.36
2023-04-25T09:16:05.047Z,96.28
2023-04-25T09:18:34.734Z,95.15
2023-04-25T09:21:14.195Z,97.28
2023-04-25T09:23:46.200Z,97.73
2023-04-25T09:26:16.782Z,95.59
2023-04-25T09:28:46.745Z,96.88
2023-04-25T09:31:24.230Z,97.70
2023-04-25T09:34:01.124Z,97.89
2023-04-25T09:36:32.682Z,98.11
2023-04-25T09:39:01.918Z,97.52
2023-04-25T09:41:30.556Z,96.23
2023-04-25T09:43:59.473Z,95.19
2023-04-25T09:46:35.823Z,95.97
2023-04-25T09:49:08.531Z,97.28
2023-04-25T09:51:38.546Z,96.63
2023-04-25T09:54:07.374Z,96.98
2023-04-25T09:56:38.186Z,97.66
2023-04-25T09:59:07.902Z,97.15
2023-04-25T10:01:36.920Z,96.73
2023-04-25T10:04:08.497Z,96.98
2023-04-25T10:06:40.003Z,96.96
2023-04-25T10:09:09.464Z,96.87
2023-04-25T10:11:39.099Z,97.52
2023-04-25T10:14:08.402Z,96.62
2023-04-25T10:16:38.282Z,96.66
2023-04-25T10:19:07.084Z,96.50
2023-04-25T10:21:36.071Z,95.68
2023-04-25T10:24:06.877Z,95.48
2023-04-25T10:26:35.514Z,96.24
2023-04-25T10:29:05.465Z,95.66
2023-04-25T10:31:34.396Z,96.14
2023-04-25T10:34:03.079Z,94.81
2023-04-25T10:36:33.940Z,95.78
2023-04-25T10:39:08.386Z,96.10
2023-04-25T10:41:48.488Z,96.05
2023-04-25T10:44:17.397Z,95.46
2023-04-25T10:46:47.276Z,96.25
2023-04-25T10:49:31.613Z,94.64
2023-04-25T10:52:17.416Z,95.85
2023-04-25T10:54:52.210Z,96.74
2023-04-25T10:57:44.288Z,95.00
2023-04-25T11:00:16.204Z,95.00
2023-04-25T11:02:48.065Z,95.24
2023-04-25T11:05:24.913Z,92.61
2023-04-25T11:10:46.435Z,95.08
2023-04-25T11:13:15.537Z,95.43
2023-04-25T11:14:38.038Z,92.13
2023-04-25T11:15:44.336Z,95.53
2023-04-25T11:18:18.075Z,95.84
2023-04-25T11:20:47.112Z,97.19
2023-04-25T11:23:16.212Z,95.29
2023-04-25T11:25:46.414Z,96.70
2023-04-25T11:28:15.046Z,95.42
2023-04-25T11:30:50.225Z,96.07
2023-04-25T11:33:19.004Z,91.91
2023-04-25T11:35:47.697Z,90.23
2023-04-25T11:38:16.334Z,90.65
2023-04-25T11:40:46.375Z,89.27
2023-04-25T11:43:15.117Z,89.34
2023-04-25T11:45:43.877Z,88.25
2023-04-25T11:48:12.630Z,91.88
2023-04-25T11:50:41.527Z,90.11
2023-04-25T11:53:10.174Z,88.74
2023-04-25T11:55:39.119Z,92.16
2023-04-25T11:58:09.587Z,86.78
2023-04-25T12:00:38.322Z,90.74
2023-04-25T12:03:07.025Z,93.46
2023-04-25T12:05:36.052Z,89.34
2023-04-25T12:08:15.309Z,91.02
2023-04-25T12:10:46.259Z,92.14
2023-04-25T12:13:24.077Z,89.54
2023-04-25T12:15:53.052Z,86.16
2023-04-25T12:18:22.912Z,89.48
2023-04-25T12:20:51.701Z,88.91
2023-04-25T12:23:27.423Z,80.95
2023-04-25T12:25:56.904Z,84.58
2023-04-25T12:28:28.528Z,91.11
2023-04-25T12:30:59.436Z,89.58
2023-04-25T12:33:28.968Z,90.85
2023-04-25T12:35:58.424Z,90.45
2023-04-25T12:38:28.205Z,91.38
2023-04-25T12:40:56.822Z,86.05
2023-04-25T12:43:26.908Z,88.48
2023-04-25T12:45:57.019Z,88.25
2023-04-25T12:48:26.007Z,91.24
2023-04-25T12:50:54.681Z,91.99
2023-04-25T12:53:25.162Z,93.10
2023-04-25T12:58:28.710Z,88.55
2023-04-25T13:00:57.356Z,89.37
2023-04-25T13:03:26.626Z,89.84
2023-04-25T13:05:55.506Z,92.78
2023-04-25T13:08:24.189Z,89.55
2023-04-25T13:10:52.890Z,87.33
2023-04-25T13:13:21.536Z,88.11
2023-04-25T13:15:51.781Z,85.50
2023-04-25T13:18:21.048Z,84.55
2023-04-25T13:20:49.732Z,88.34
2023-04-25T13:23:18.368Z,84.92
2023-04-25T13:25:47.076Z,84.09
2023-04-25T13:28:16.215Z,84.26
2023-04-25T13:30:45.061Z,79.70
2023-04-25T13:33:14.980Z,81.11
2023-04-25T13:35:44.393Z,79.30
2023-04-25T13:38:13.158Z,82.87
2023-04-25T13:40:41.819Z,81.51
2023-04-25T13:43:10.424Z,83.19
2023-04-25T13:45:39.130Z,83.06
2023-04-25T13:48:08.097Z,84.05
2023-04-25T13:50:38.094Z,88.47
2023-04-25T13:53:06.810Z,87.26
2023-04-25T13:55:36.337Z,84.60
2023-04-25T13:58:08.523Z,84.65
2023-04-25T14:00:39.450Z,82.94
2023-04-25T14:03:09.445Z,84.98
2023-04-25T14:05:40.379Z,81.22
2023-04-25T14:08:10.378Z,84.06
2023-04-25T14:10:39.300Z,81.78
2023-04-25T14:13:10.211Z,81.72
2023-04-25T14:15:39.655Z,86.51
2023-04-25T14:18:08.430Z,80.42
2023-04-25T14:20:37.110Z,82.84
2023-04-25T14:23:07.262Z,84.40
2023-04-25T14:25:36.686Z,80.31
2023-04-25T14:28:05.605Z,80.47
2023-04-25T14:30:34.343Z,83.09
2023-04-25T14:33:02.975Z,81.03
2023-04-25T14:35:31.883Z,82.14
2023-04-25T14:38:00.519Z,78.57
2023-04-25T14:40:30.569Z,81.17
2023-04-25T14:42:59.318Z,82.81
2023-04-25T14:45:28.058Z,79.77
2023-04-25T14:47:56.913Z,75.92
2023-04-25T14:50:25.706Z,73.96
2023-04-25T14:52:54.377Z,73.06
2023-04-25T14:55:23.008Z,73.91
2023-04-25T14:57:53.007Z,74.98
2023-04-25T15:00:23.011Z,73.83
2023-04-25T15:02:51.816Z,77.57
2023-04-25T15:05:21.056Z,79.60
2023-04-25T15:07:49.797Z,81.50
2023-04-25T15:10:19.187Z,73.74
2023-04-25T15:12:48.199Z,77.88
2023-04-25T15:15:26.019Z,78.19
2023-04-25T15:17:58.782Z,72.85
2023-04-25T15:20:28.589Z,79.16
2023-04-25T15:22:57.469Z,76.31
2023-04-25T15:25:26.342Z,75.35
2023-04-25T15:27:55.811Z,74.82
2023-04-25T15:30:25.874Z,76.46
2023-04-25T15:32:54.523Z,79.25
2023-04-25T15:35:23.246Z,78.42
2023-04-25T15:37:52.374Z,78.53
2023-04-25T15:40:21.190Z,73.60
2023-04-25T15:42:51.733Z,72.68
2023-04-25T15:45:21.560Z,72.59
2023-04-25T15:47:52.886Z,70.78
2023-04-25T15:50:22.217Z,71.92
2023-04-25T15:52:51.300Z,79.20
2023-04-25T15:55:21.552Z,82.21
2023-04-25T15:57:51.098Z,74.60
2023-04-25T16:00:22.033Z,80.41
2023-04-25T16:02:52.732Z,75.64
2023-04-25T16:05:21.532Z,73.24
2023-04-25T16:07:53.548Z,73.85
2023-04-25T16:10:22.373Z,76.30
2023-04-25T16:12:51.426Z,76.27
2023-04-25T16:15:20.117Z,74.92
2023-04-25T16:17:48.762Z,73.82
2023-04-25T16:20:18.877Z,73.47
2023-04-25T16:22:47.652Z,71.78
2023-04-25T16:25:16.255Z,76.50
2023-04-25T16:27:44.868Z,74.34
2023-04-25T16:30:14.144Z,73.32
2023-04-25T16:32:45.279Z,75.04
2023-04-25T16:35:14.193Z,77.45
2023-04-25T16:37:44.557Z,81.51
2023-04-25T16:40:13.824Z,78.12
2023-04-25T16:42:42.483Z,76.63
2023-04-25T16:45:12.271Z,77.81
2023-04-25T16:47:41.005Z,76.56
2023-04-25T16:50:10.346Z,75.66
2023-04-25T16:52:38.998Z,80.93
2023-04-25T16:55:10.382Z,81.15
2023-04-25T16:57:39.208Z,83.00
2023-04-25T17:00:10.450Z,84.74
2023-04-25T17:02:39.196Z,79.32
2023-04-25T17:05:08.814Z,76.62
2023-04-25T17:07:37.508Z,82.75
2023-04-25T17:10:06.959Z,82.39
2023-04-25T17:12:37.476Z,83.18
2023-04-25T17:15:07.263Z,85.14
2023-04-25T17:17:35.984Z,84.58
2023-04-25T17:20:06.789Z,86.89
2023-04-25T17:22:36.020Z,81.49
2023-04-25T17:25:04.867Z,78.37
2023-04-25T17:27:33.542Z,77.27
2023-04-25T17:30:04.103Z,79.55
2023-04-25T17:32:32.720Z,79.09
2023-04-25T17:35:01.405Z,73.91
2023-04-25T17:37:30.119Z,74.24
2023-04-25T17:39:58.749Z,72.36
2023-04-25T17:42:28.060Z,72.72
2023-04-25T17:44:56.692Z,76.20
2023-04-25T17:47:26.824Z,74.98
2023-04-25T17:49:56.508Z,74.82
2023-04-25T17:52:25.651Z,75.29
2023-04-25T17:54:54.344Z,76.29
2023-04-25T17:57:24.328Z,74.90
2023-04-25T17:59:53.419Z,76.94
2023-04-25T18:02:22.489Z,76.18
2023-04-25T18:04:52.790Z,77.73
2023-04-25T18:07:21.476Z,78.54
2023-04-25T18:09:50.084Z,80.91
2023-04-25T18:12:18.743Z,83.20
2023-04-25T18:14:47.501Z,83.94
2023-04-25T18:17:17.178Z,83.52
2023-04-25T18:19:46.453Z,84.65
2023-04-25T18:22:17.034Z,88.06
2023-04-25T18:24:46.309Z,84.54
2023-04-25T18:27:15.083Z,83.76
2023-04-25T18:29:45.474Z,85.90
2023-04-25T18:32:14.383Z,83.25
2023-04-25T18:34:46.040Z,87.08
2023-04-25T18:37:16.067Z,86.58
2023-04-25T18:39:44.713Z,88.22
2023-04-25T18:42:13.797Z,89.85
2023-04-25T18:44:42.674Z,88.46
2023-04-25T18:47:13.015Z,86.09
2023-04-25T18:49:41.688Z,85.46
2023-04-25T18:52:12.226Z,88.47
2023-04-25T18:54:42.604Z,89.10
2023-04-25T18:57:14.531Z,87.35
2023-04-25T18:59:44.300Z,90.22
2023-04-25T19:02:13.233Z,88.02
2023-04-25T19:04:42.032Z,89.49
2023-04-25T19:07:10.778Z,87.85
2023-04-25T19:09:39.485Z,87.66
2023-04-25T19:12:09.938Z,91.75
2023-04-25T19:14:38.625Z,90.35
2023-04-25T19:17:07.409Z,88.97
2023-04-25T19:19:36.213Z,88.96
2023-04-25T19:22:04.869Z,89.96
2023-04-25T19:24:34.640Z,88.93
2023-04-25T19:27:03.955Z,89.30
2023-04-25T19:29:34.465Z,89.50
2023-04-25T19:32:03.424Z,90.12
2023-04-25T19:34:32.095Z,92.19
2023-04-25T19:37:00.717Z,91.47
2023-04-25T19:39:29.844Z,93.34
2023-04-25T19:41:59.338Z,95.02
2023-04-25T19:44:28.421Z,94.55
2023-04-25T19:46:59.616Z,94.72
2023-04-25T19:49:28.405Z,94.49
2023-04-25T19:51:57.068Z,95.66
2023-04-25T19:54:25.741Z,94.79
2023-04-25T19:56:54.713Z,94.32
2023-04-25T19:59:23.283Z,94.10
2023-04-25T20:01:52.032Z,94.12
2023-04-25T20:04:22.179Z,94.06
2023-04-25T20:06:50.977Z,94.79
2023-04-25T20:09:20.853Z,94.71
2023-04-25T20:11:49.616Z,95.62
2023-04-25T20:14:18.194Z,95.93
2023-04-25T20:16:47.749Z,95.63
2023-04-25T20:19:16.442Z,94.85
2023-04-25T20:21:46.427Z,93.16
2023-04-25T20:24:15.098Z,94.44
2023-04-25T20:26:43.762Z,93.98
2023-04-25T20:29:12.519Z,92.17
2023-04-25T20:31:42.405Z,93.07
2023-04-25T20:34:11.130Z,94.25
2023-04-25T20:36:40.274Z,93.55
2023-04-25T20:39:10.355Z,93.78
2023-04-25T20:41:40.325Z,93.38
2023-04-25T20:44:09.392Z,94.65
2023-04-25T20:46:38.063Z,95.21
2023-04-25T20:49:07.701Z,94.98
2023-04-25T20:51:37.048Z,96.10
2023-04-25T20:54:05.700Z,93.15
2023-04-25T20:56:35.705Z,92.00
2023-04-25T20:59:04.524Z,93.20
2023-04-25T21:01:33.221Z,94.95
2023-04-25T21:04:02.139Z,95.54
2023-04-25T21:06:31.265Z,95.22
2023-04-25T21:08:59.877Z,94.30
2023-04-25T21:11:28.722Z,93.75
2023-04-25T21:13:58.798Z,94.57
2023-04-25T21:16:27.527Z,93.73
2023-04-25T21:18:56.233Z,92.60
2023-04-25T21:21:24.977Z,95.22
2023-04-25T21:23:53.688Z,96.02
2023-04-25T21:26:22.418Z,95.69
2023-04-25T21:28:51.332Z,95.67
2023-04-25T21:31:21.501Z,95.68
2023-04-25T21:33:50.315Z,95.62
2023-04-25T21:36:18.946Z,95.94
2023-04-25T21:38:47.592Z,96.30
2023-04-25T21:41:16.467Z,96.45
2023-04-25T21:43:45.207Z,97.50
2023-04-25T21:48:46.803Z,95.05
2023-04-25T21:51:15.462Z,95.61
2023-04-25T21:53:44.110Z,96.04
2023-04-25T21:56:12.951Z,96.44
2023-04-25T21:58:41.617Z,98.03
2023-04-25T22:01:10.448Z,96.55
2023-04-25T22:03:39.196Z,97.47
2023-04-25T22:06:09.289Z,96.32
2023-04-25T22:08:38.330Z,96.00
2023-04-25T22:11:08.393Z,95.57
2023-04-25T22:13:37.028Z,96.06
2023-04-25T22:16:06.394Z,97.22
2023-04-25T22:18:36.316Z,95.63
2023-04-25T22:21:05.159Z,94.76
2023-04-25T22:23:35.122Z,95.11
2023-04-25T22:26:04.011Z,95.15
2023-04-25T22:28:33.065Z,95.20
2023-04-25T22:31:02.372Z,95.52
2023-04-25T22:33:33.363Z,98.16
2023-04-25T22:36:02.106Z,98.50
2023-04-25T22:38:30.921Z,97.06
2023-04-25T22:41:00.909Z,95.42
2023-04-25T22:43:29.914Z,95.15
2023-04-25T22:45:59.694Z,94.57
2023-04-25T22:48:28.237Z,94.53
2023-04-25T22:51:02.830Z,95.31
2023-04-25T22:53:34.058Z,96.17
2023-04-25T22:56:04.340Z,97.16
2023-04-25T22:58:33.095Z,96.94
2023-04-25T23:01:01.743Z,97.23
2023-04-25T23:03:32.654Z,97.53
2023-04-25T23:06:01.420Z,97.76
2023-04-25T23:08:30.456Z,97.41
2023-04-25T23:10:59.112Z,96.27
2023-04-25T23:13:29.090Z,96.09
2023-04-25T23:15:57.985Z,94.89
2023-04-25T23:18:26.587Z,95.18
2023-04-25T23:20:55.247Z,95.55
2023-04-25T23:23:23.800Z,95.24
2023-04-25T23:25:52.432Z,94.27
2023-04-25T23:28:21.413Z,93.42
2023-04-25T23:30:51.388Z,93.42
2023-04-25T23:33:20.091Z,92.53
2023-04-25T23:35:48.661Z,96.01
2023-04-25T23:38:17.668Z,96.17
2023-04-25T23:40:46.361Z,96.69
2023-04-25T23:43:15.752Z,98.05
2023-04-25T23:45:46.178Z,95.32
2023-04-25T23:48:16.867Z,94.78
2023-04-25T23:50:45.541Z,95.42
2023-04-25T23:53:14.132Z,97.22
2023-04-25T23:55:43.013Z,95.34
2023-04-25T23:58:11.662Z,94.76
